Air Resources Laboratory banner image
Air Resources Laboratory web site National Oceanic and Atmospheric Administration (NOAA)

nd metar


KBIS 110452Z AUTO 07007KT 10SM CLR 19/12 A3022 RMK AO2 SLP228 T01890122=
KDIK 110456Z AUTO 10012KT 10SM CLR 19/11 A3019 RMK AO2 SLP206 T01940106=
KDVL 110456Z AUTO 08007KT 10SM CLR 17/11 A3029 RMK AO2 SLP267 T01670111
 402440106=
KFAR 110453Z 04007KT 10SM CLR 17/12 A3024 RMK AO2 SLP239 T01720122=
KGFK 110453Z AUTO 02003KT 10SM CLR 14/11 A3026 RMK AO2 SLP245 T01390106=
KHEI 110453Z AUTO 09014G25KT 10SM CLR 21/13 A3018 RMK AO2 SLP202 T02110128=
KJMS 110456Z AUTO 08007KT 10SM CLR 18/12 A3025 RMK AO2 SLP240 T01780122=
KMIB 110456Z AUTO 15008KT 10SM SCT170 17/13 A3021 RMK AO2 SLP232 T01670132 $=
KMOT 110454Z AUTO 08006KT 10SM CLR 19/12 A3024 RMK AO2 SLP236 T01890122=
KN60 110452Z AUTO 10009KT 18/12 A3023 RMK AO1 SLP228 T01830122=
KRDR 110456Z AUTO 29003KT 10SM SCT180 BKN210 BKN230 13/11 A3027 RMK AO2 SLP255
 T01280109 $=